sensor_id;sensor_type;location;lat;lon;timestamp;P1;durP1;ratioP1;P2;durP2;ratioP2
49440;SDS011;35317;51.978;6.296;2022-11-15T00:04:38;48.75;;;22.13;;
49440;SDS011;35317;51.978;6.296;2022-11-15T00:09:38;48.97;;;24.75;;
49440;SDS011;35317;51.978;6.296;2022-11-15T00:14:39;49.00;;;24.00;;
49440;SDS011;35317;51.978;6.296;2022-11-15T00:19:40;53.50;;;24.67;;
49440;SDS011;35317;51.978;6.296;2022-11-15T00:24:40;54.72;;;25.90;;
49440;SDS011;35317;51.978;6.296;2022-11-15T00:29:42;51.60;;;25.58;;
49440;SDS011;35317;51.978;6.296;2022-11-15T00:34:45;51.90;;;25.35;;
49440;SDS011;35317;51.978;6.296;2022-11-15T00:39:46;50.30;;;24.90;;
49440;SDS011;35317;51.978;6.296;2022-11-15T00:44:48;46.63;;;24.80;;
49440;SDS011;35317;51.978;6.296;2022-11-15T00:49:48;51.42;;;26.35;;
49440;SDS011;35317;51.978;6.296;2022-11-15T00:54:49;48.25;;;25.23;;
49440;SDS011;35317;51.978;6.296;2022-11-15T00:59:50;40.90;;;24.40;;
49440;SDS011;35317;51.978;6.296;2022-11-15T01:04:51;41.60;;;23.58;;
49440;SDS011;35317;51.978;6.296;2022-11-15T01:09:51;48.45;;;24.88;;
49440;SDS011;35317;51.978;6.296;2022-11-15T01:14:52;41.80;;;23.92;;
49440;SDS011;35317;51.978;6.296;2022-11-15T01:19:53;46.08;;;25.58;;
49440;SDS011;35317;51.978;6.296;2022-11-15T01:24:54;47.47;;;25.13;;
49440;SDS011;35317;51.978;6.296;2022-11-15T01:29:54;53.92;;;27.60;;
49440;SDS011;35317;51.978;6.296;2022-11-15T01:34:55;57.22;;;27.77;;
49440;SDS011;35317;51.978;6.296;2022-11-15T01:39:56;57.67;;;29.05;;
49440;SDS011;35317;51.978;6.296;2022-11-15T01:44:56;53.35;;;28.38;;
49440;SDS011;35317;51.978;6.296;2022-11-15T01:50:04;62.75;;;29.00;;
49440;SDS011;35317;51.978;6.296;2022-11-15T02:00:17;54.35;;;28.60;;
49440;SDS011;35317;51.978;6.296;2022-11-15T02:05:18;48.80;;;27.80;;
49440;SDS011;35317;51.978;6.296;2022-11-15T02:10:20;47.58;;;27.40;;
49440;SDS011;35317;51.978;6.296;2022-11-15T02:15:24;51.25;;;27.02;;
49440;SDS011;35317;51.978;6.296;2022-11-15T02:20:38;49.05;;;27.50;;
49440;SDS011;35317;51.978;6.296;2022-11-15T02:26:05;46.03;;;25.95;;
49440;SDS011;35317;51.978;6.296;2022-11-15T02:31:51;46.38;;;26.52;;
49440;SDS011;35317;51.978;6.296;2022-11-15T02:37:20;41.38;;;24.75;;
49440;SDS011;35317;51.978;6.296;2022-11-15T02:42:33;43.13;;;25.27;;
49440;SDS011;35317;51.978;6.296;2022-11-15T02:48:09;41.03;;;24.45;;
49440;SDS011;35317;51.978;6.296;2022-11-15T02:53:12;37.08;;;23.35;;
49440;SDS011;35317;51.978;6.296;2022-11-15T03:10:10;39.70;;;22.02;;
49440;SDS011;35317;51.978;6.296;2022-11-15T03:15:24;36.17;;;21.83;;
49440;SDS011;35317;51.978;6.296;2022-11-15T03:20:30;34.42;;;21.80;;
49440;SDS011;35317;51.978;6.296;2022-11-15T03:25:32;32.90;;;22.08;;
49440;SDS011;35317;51.978;6.296;2022-11-15T03:30:38;37.47;;;23.42;;
49440;SDS011;35317;51.978;6.296;2022-11-15T03:35:42;39.80;;;23.52;;
49440;SDS011;35317;51.978;6.296;2022-11-15T03:40:51;40.23;;;23.77;;
49440;SDS011;35317;51.978;6.296;2022-11-15T03:46:00;37.70;;;22.90;;
49440;SDS011;35317;51.978;6.296;2022-11-15T03:51:06;39.20;;;23.20;;
49440;SDS011;35317;51.978;6.296;2022-11-15T03:56:06;40.20;;;23.88;;
49440;SDS011;35317;51.978;6.296;2022-11-15T04:01:07;39.90;;;23.38;;
49440;SDS011;35317;51.978;6.296;2022-11-15T04:06:08;46.75;;;24.35;;
49440;SDS011;35317;51.978;6.296;2022-11-15T04:11:09;35.88;;;23.30;;
49440;SDS011;35317;51.978;6.296;2022-11-15T04:16:09;41.08;;;24.25;;
49440;SDS011;35317;51.978;6.296;2022-11-15T04:21:10;43.17;;;25.35;;
49440;SDS011;35317;51.978;6.296;2022-11-15T04:26:29;38.83;;;24.20;;
49440;SDS011;35317;51.978;6.296;2022-11-15T04:31:30;37.40;;;23.20;;
49440;SDS011;35317;51.978;6.296;2022-11-15T04:36:31;39.92;;;24.17;;
49440;SDS011;35317;51.978;6.296;2022-11-15T04:41:51;39.10;;;23.42;;
49440;SDS011;35317;51.978;6.296;2022-11-15T04:46:51;37.50;;;22.40;;
49440;SDS011;35317;51.978;6.296;2022-11-15T04:51:52;34.50;;;22.10;;
49440;SDS011;35317;51.978;6.296;2022-11-15T04:56:53;31.48;;;20.85;;
49440;SDS011;35317;51.978;6.296;2022-11-15T05:01:54;33.10;;;21.95;;
49440;SDS011;35317;51.978;6.296;2022-11-15T05:06:55;37.33;;;21.52;;
49440;SDS011;35317;51.978;6.296;2022-11-15T05:11:55;32.30;;;20.35;;
49440;SDS011;35317;51.978;6.296;2022-11-15T05:16:56;40.45;;;21.52;;
49440;SDS011;35317;51.978;6.296;2022-11-15T05:21:57;41.63;;;21.77;;
49440;SDS011;35317;51.978;6.296;2022-11-15T05:26:58;34.60;;;21.65;;
49440;SDS011;35317;51.978;6.296;2022-11-15T05:31:59;35.35;;;22.17;;
49440;SDS011;35317;51.978;6.296;2022-11-15T05:36:59;35.28;;;22.75;;
49440;SDS011;35317;51.978;6.296;2022-11-15T05:47:10;38.03;;;22.83;;
49440;SDS011;35317;51.978;6.296;2022-11-15T05:52:16;36.35;;;23.20;;
49440;SDS011;35317;51.978;6.296;2022-11-15T05:57:20;41.17;;;24.02;;
49440;SDS011;35317;51.978;6.296;2022-11-15T06:02:21;44.97;;;24.83;;
49440;SDS011;35317;51.978;6.296;2022-11-15T06:07:22;45.72;;;26.13;;
49440;SDS011;35317;51.978;6.296;2022-11-15T06:12:22;41.00;;;25.58;;
49440;SDS011;35317;51.978;6.296;2022-11-15T06:17:23;48.17;;;27.33;;
49440;SDS011;35317;51.978;6.296;2022-11-15T06:22:24;44.80;;;27.60;;
49440;SDS011;35317;51.978;6.296;2022-11-15T06:27:25;45.75;;;27.17;;
49440;SDS011;35317;51.978;6.296;2022-11-15T06:32:25;45.67;;;26.27;;
49440;SDS011;35317;51.978;6.296;2022-11-15T06:37:26;43.30;;;26.75;;
49440;SDS011;35317;51.978;6.296;2022-11-15T06:42:27;45.58;;;27.75;;
49440;SDS011;35317;51.978;6.296;2022-11-15T06:47:27;47.33;;;28.17;;
49440;SDS011;35317;51.978;6.296;2022-11-15T06:52:28;41.50;;;26.80;;
49440;SDS011;35317;51.978;6.296;2022-11-15T06:57:32;50.75;;;30.23;;
49440;SDS011;35317;51.978;6.296;2022-11-15T07:02:33;46.00;;;27.52;;
49440;SDS011;35317;51.978;6.296;2022-11-15T07:07:34;48.63;;;27.73;;
49440;SDS011;35317;51.978;6.296;2022-11-15T07:12:34;47.20;;;28.73;;
49440;SDS011;35317;51.978;6.296;2022-11-15T07:17:35;61.72;;;30.40;;
49440;SDS011;35317;51.978;6.296;2022-11-15T07:22:36;61.17;;;31.67;;
49440;SDS011;35317;51.978;6.296;2022-11-15T07:27:37;47.72;;;27.38;;
49440;SDS011;35317;51.978;6.296;2022-11-15T07:32:38;55.05;;;26.83;;
49440;SDS011;35317;51.978;6.296;2022-11-15T07:37:39;46.80;;;26.15;;
49440;SDS011;35317;51.978;6.296;2022-11-15T07:42:39;49.75;;;26.30;;
49440;SDS011;35317;51.978;6.296;2022-11-15T07:47:56;47.60;;;27.27;;
49440;SDS011;35317;51.978;6.296;2022-11-15T07:52:58;45.00;;;26.95;;
49440;SDS011;35317;51.978;6.296;2022-11-15T07:58:03;47.53;;;25.98;;
49440;SDS011;35317;51.978;6.296;2022-11-15T08:03:10;42.58;;;24.35;;
49440;SDS011;35317;51.978;6.296;2022-11-15T08:08:12;41.13;;;23.67;;
49440;SDS011;35317;51.978;6.296;2022-11-15T08:13:13;34.00;;;21.25;;
49440;SDS011;35317;51.978;6.296;2022-11-15T08:18:14;32.33;;;20.25;;
49440;SDS011;35317;51.978;6.296;2022-11-15T08:23:16;27.23;;;18.48;;
49440;SDS011;35317;51.978;6.296;2022-11-15T08:28:17;29.23;;;17.58;;
49440;SDS011;35317;51.978;6.296;2022-11-15T08:33:17;28.35;;;17.15;;
49440;SDS011;35317;51.978;6.296;2022-11-15T08:38:18;20.30;;;12.82;;
49440;SDS011;35317;51.978;6.296;2022-11-15T08:43:19;19.42;;;12.95;;
49440;SDS011;35317;51.978;6.296;2022-11-15T08:48:20;15.85;;;11.95;;
49440;SDS011;35317;51.978;6.296;2022-11-15T08:53:20;18.05;;;10.73;;
49440;SDS011;35317;51.978;6.296;2022-11-15T08:58:22;18.65;;;11.50;;
49440;SDS011;35317;51.978;6.296;2022-11-15T09:03:23;19.20;;;12.05;;
49440;SDS011;35317;51.978;6.296;2022-11-15T09:08:24;18.95;;;10.70;;
49440;SDS011;35317;51.978;6.296;2022-11-15T09:13:26;15.77;;;8.73;;
49440;SDS011;35317;51.978;6.296;2022-11-15T09:18:26;15.23;;;8.75;;
49440;SDS011;35317;51.978;6.296;2022-11-15T09:23:27;14.90;;;8.25;;
49440;SDS011;35317;51.978;6.296;2022-11-15T09:28:28;11.68;;;7.65;;
49440;SDS011;35317;51.978;6.296;2022-11-15T09:33:30;13.43;;;8.38;;
49440;SDS011;35317;51.978;6.296;2022-11-15T09:38:31;12.73;;;9.38;;
49440;SDS011;35317;51.978;6.296;2022-11-15T09:43:35;16.73;;;10.07;;
49440;SDS011;35317;51.978;6.296;2022-11-15T09:53:56;17.42;;;10.68;;
49440;SDS011;35317;51.978;6.296;2022-11-15T10:04:51;13.77;;;8.32;;
49440;SDS011;35317;51.978;6.296;2022-11-15T10:09:55;12.07;;;7.63;;
49440;SDS011;35317;51.978;6.296;2022-11-15T10:15:27;11.57;;;6.95;;
49440;SDS011;35317;51.978;6.296;2022-11-15T10:20:29;9.32;;;5.80;;
49440;SDS011;35317;51.978;6.296;2022-11-15T10:25:36;8.98;;;6.22;;
49440;SDS011;35317;51.978;6.296;2022-11-15T10:30:40;9.88;;;5.30;;
49440;SDS011;35317;51.978;6.296;2022-11-15T10:35:44;8.18;;;5.25;;
49440;SDS011;35317;51.978;6.296;2022-11-15T10:40:44;9.70;;;4.50;;
49440;SDS011;35317;51.978;6.296;2022-11-15T10:45:46;3.80;;;2.95;;
49440;SDS011;35317;51.978;6.296;2022-11-15T10:50:47;5.85;;;3.40;;
49440;SDS011;35317;51.978;6.296;2022-11-15T10:55:51;6.47;;;3.08;;
49440;SDS011;35317;51.978;6.296;2022-11-15T11:00:56;6.55;;;2.70;;
49440;SDS011;35317;51.978;6.296;2022-11-15T11:06:17;3.58;;;2.60;;
49440;SDS011;35317;51.978;6.296;2022-11-15T11:11:18;6.40;;;2.40;;
49440;SDS011;35317;51.978;6.296;2022-11-15T11:16:26;3.30;;;1.98;;
49440;SDS011;35317;51.978;6.296;2022-11-15T11:21:44;6.30;;;2.17;;
49440;SDS011;35317;51.978;6.296;2022-11-15T11:27:21;7.15;;;2.40;;
49440;SDS011;35317;51.978;6.296;2022-11-15T11:44:24;4.20;;;1.60;;
49440;SDS011;35317;51.978;6.296;2022-11-15T11:49:42;3.13;;;1.38;;
49440;SDS011;35317;51.978;6.296;2022-11-15T12:00:23;5.43;;;1.20;;
49440;SDS011;35317;51.978;6.296;2022-11-15T12:05:35;3.13;;;1.27;;
49440;SDS011;35317;51.978;6.296;2022-11-15T12:10:45;3.20;;;1.30;;
49440;SDS011;35317;51.978;6.296;2022-11-15T12:15:56;3.45;;;1.20;;
49440;SDS011;35317;51.978;6.296;2022-11-15T12:26:37;3.75;;;1.10;;
49440;SDS011;35317;51.978;6.296;2022-11-15T12:31:49;2.53;;;0.90;;
49440;SDS011;35317;51.978;6.296;2022-11-15T12:36:52;2.75;;;0.98;;
49440;SDS011;35317;51.978;6.296;2022-11-15T12:46:58;3.22;;;0.90;;
49440;SDS011;35317;51.978;6.296;2022-11-15T12:52:05;3.00;;;0.93;;
49440;SDS011;35317;51.978;6.296;2022-11-15T13:02:35;3.45;;;1.30;;
49440;SDS011;35317;51.978;6.296;2022-11-15T13:17:47;2.00;;;1.13;;
49440;SDS011;35317;51.978;6.296;2022-11-15T13:22:50;3.63;;;1.48;;
49440;SDS011;35317;51.978;6.296;2022-11-15T13:38:36;3.28;;;1.27;;
49440;SDS011;35317;51.978;6.296;2022-11-15T13:43:38;4.78;;;1.38;;
49440;SDS011;35317;51.978;6.296;2022-11-15T13:48:40;2.25;;;1.20;;
49440;SDS011;35317;51.978;6.296;2022-11-15T13:53:44;3.15;;;1.40;;
49440;SDS011;35317;51.978;6.296;2022-11-15T13:58:50;2.28;;;1.15;;
49440;SDS011;35317;51.978;6.296;2022-11-15T14:03:54;3.33;;;1.40;;
49440;SDS011;35317;51.978;6.296;2022-11-15T14:19:12;3.13;;;1.30;;
49440;SDS011;35317;51.978;6.296;2022-11-15T14:24:29;3.47;;;2.03;;
49440;SDS011;35317;51.978;6.296;2022-11-15T14:29:31;5.93;;;1.50;;
49440;SDS011;35317;51.978;6.296;2022-11-15T14:34:32;6.85;;;1.73;;
49440;SDS011;35317;51.978;6.296;2022-11-15T14:39:33;2.70;;;1.60;;
49440;SDS011;35317;51.978;6.296;2022-11-15T14:44:34;5.95;;;1.58;;
49440;SDS011;35317;51.978;6.296;2022-11-15T14:49:35;9.75;;;2.42;;
49440;SDS011;35317;51.978;6.296;2022-11-15T14:54:35;4.25;;;1.42;;
49440;SDS011;35317;51.978;6.296;2022-11-15T14:59:36;5.10;;;1.83;;
49440;SDS011;35317;51.978;6.296;2022-11-15T15:04:37;7.70;;;1.80;;
49440;SDS011;35317;51.978;6.296;2022-11-15T15:09:37;6.00;;;1.65;;
49440;SDS011;35317;51.978;6.296;2022-11-15T15:14:39;6.72;;;1.85;;
49440;SDS011;35317;51.978;6.296;2022-11-15T15:19:39;9.55;;;2.20;;
49440;SDS011;35317;51.978;6.296;2022-11-15T15:24:41;4.53;;;1.77;;
49440;SDS011;35317;51.978;6.296;2022-11-15T15:29:43;5.32;;;2.38;;
49440;SDS011;35317;51.978;6.296;2022-11-15T15:34:43;7.88;;;1.92;;
49440;SDS011;35317;51.978;6.296;2022-11-15T15:39:44;6.50;;;2.15;;
49440;SDS011;35317;51.978;6.296;2022-11-15T15:44:45;9.82;;;1.65;;
49440;SDS011;35317;51.978;6.296;2022-11-15T15:49:47;6.03;;;1.27;;
49440;SDS011;35317;51.978;6.296;2022-11-15T15:54:49;5.30;;;1.20;;
49440;SDS011;35317;51.978;6.296;2022-11-15T15:59:50;5.07;;;1.10;;
49440;SDS011;35317;51.978;6.296;2022-11-15T16:04:51;5.43;;;1.15;;
49440;SDS011;35317;51.978;6.296;2022-11-15T16:09:51;9.02;;;1.52;;
49440;SDS011;35317;51.978;6.296;2022-11-15T16:15:00;4.90;;;1.20;;
49440;SDS011;35317;51.978;6.296;2022-11-15T16:20:02;8.90;;;1.05;;
49440;SDS011;35317;51.978;6.296;2022-11-15T16:25:04;5.20;;;2.45;;
49440;SDS011;35317;51.978;6.296;2022-11-15T16:30:07;5.22;;;1.75;;
49440;SDS011;35317;51.978;6.296;2022-11-15T16:35:13;4.07;;;1.25;;
49440;SDS011;35317;51.978;6.296;2022-11-15T16:40:24;4.70;;;0.98;;
49440;SDS011;35317;51.978;6.296;2022-11-15T16:45:30;6.13;;;1.50;;
49440;SDS011;35317;51.978;6.296;2022-11-15T16:55:41;4.10;;;1.20;;
49440;SDS011;35317;51.978;6.296;2022-11-15T17:00:42;3.92;;;1.40;;
49440;SDS011;35317;51.978;6.296;2022-11-15T17:05:43;5.57;;;1.55;;
49440;SDS011;35317;51.978;6.296;2022-11-15T17:10:44;3.30;;;1.50;;
49440;SDS011;35317;51.978;6.296;2022-11-15T17:15:44;9.05;;;1.88;;
49440;SDS011;35317;51.978;6.296;2022-11-15T17:20:45;7.22;;;2.20;;
49440;SDS011;35317;51.978;6.296;2022-11-15T17:25:46;3.47;;;1.70;;
49440;SDS011;35317;51.978;6.296;2022-11-15T17:30:47;6.60;;;2.25;;
49440;SDS011;35317;51.978;6.296;2022-11-15T17:35:54;4.85;;;2.10;;
49440;SDS011;35317;51.978;6.296;2022-11-15T17:41:04;6.85;;;2.10;;
49440;SDS011;35317;51.978;6.296;2022-11-15T17:46:14;4.47;;;2.40;;
49440;SDS011;35317;51.978;6.296;2022-11-15T17:51:18;5.93;;;3.13;;
49440;SDS011;35317;51.978;6.296;2022-11-15T17:56:20;9.43;;;2.53;;
49440;SDS011;35317;51.978;6.296;2022-11-15T18:01:27;6.07;;;2.85;;
49440;SDS011;35317;51.978;6.296;2022-11-15T18:06:33;4.28;;;2.30;;
49440;SDS011;35317;51.978;6.296;2022-11-15T18:11:36;4.47;;;2.60;;
49440;SDS011;35317;51.978;6.296;2022-11-15T18:16:40;5.65;;;2.72;;
49440;SDS011;35317;51.978;6.296;2022-11-15T18:21:42;10.48;;;5.00;;
49440;SDS011;35317;51.978;6.296;2022-11-15T18:31:59;6.53;;;3.40;;
49440;SDS011;35317;51.978;6.296;2022-11-15T18:37:03;4.95;;;3.00;;
49440;SDS011;35317;51.978;6.296;2022-11-15T18:42:03;6.43;;;3.20;;
49440;SDS011;35317;51.978;6.296;2022-11-15T18:47:04;8.25;;;3.13;;
49440;SDS011;35317;51.978;6.296;2022-11-15T18:52:05;5.70;;;3.30;;
49440;SDS011;35317;51.978;6.296;2022-11-15T18:57:07;10.05;;;3.42;;
49440;SDS011;35317;51.978;6.296;2022-11-15T19:02:09;8.82;;;3.33;;
49440;SDS011;35317;51.978;6.296;2022-11-15T19:07:11;6.47;;;3.85;;
49440;SDS011;35317;51.978;6.296;2022-11-15T19:12:12;6.63;;;3.85;;
49440;SDS011;35317;51.978;6.296;2022-11-15T19:17:13;13.30;;;4.60;;
49440;SDS011;35317;51.978;6.296;2022-11-15T19:22:14;5.97;;;4.22;;
49440;SDS011;35317;51.978;6.296;2022-11-15T19:27:14;6.78;;;4.88;;
49440;SDS011;35317;51.978;6.296;2022-11-15T19:32:15;9.77;;;5.20;;
49440;SDS011;35317;51.978;6.296;2022-11-15T19:37:16;9.25;;;5.18;;
49440;SDS011;35317;51.978;6.296;2022-11-15T19:42:16;8.95;;;5.68;;
49440;SDS011;35317;51.978;6.296;2022-11-15T19:47:17;11.20;;;7.20;;
49440;SDS011;35317;51.978;6.296;2022-11-15T19:52:18;9.43;;;5.80;;
49440;SDS011;35317;51.978;6.296;2022-11-15T19:57:21;11.05;;;6.32;;
49440;SDS011;35317;51.978;6.296;2022-11-15T20:02:22;12.15;;;5.63;;
49440;SDS011;35317;51.978;6.296;2022-11-15T20:07:22;7.90;;;6.13;;
49440;SDS011;35317;51.978;6.296;2022-11-15T20:12:23;9.32;;;5.30;;
49440;SDS011;35317;51.978;6.296;2022-11-15T20:17:24;9.32;;;5.00;;
49440;SDS011;35317;51.978;6.296;2022-11-15T20:22:25;10.18;;;5.53;;
49440;SDS011;35317;51.978;6.296;2022-11-15T20:27:26;6.13;;;5.20;;
49440;SDS011;35317;51.978;6.296;2022-11-15T20:32:27;8.32;;;4.85;;
49440;SDS011;35317;51.978;6.296;2022-11-15T20:37:30;10.15;;;5.60;;
49440;SDS011;35317;51.978;6.296;2022-11-15T20:42:30;6.32;;;5.43;;
49440;SDS011;35317;51.978;6.296;2022-11-15T20:47:31;9.95;;;6.15;;
49440;SDS011;35317;51.978;6.296;2022-11-15T20:52:32;10.50;;;6.15;;
49440;SDS011;35317;51.978;6.296;2022-11-15T20:57:33;12.38;;;6.28;;
49440;SDS011;35317;51.978;6.296;2022-11-15T21:02:34;8.30;;;5.97;;
49440;SDS011;35317;51.978;6.296;2022-11-15T21:07:35;10.10;;;7.20;;
49440;SDS011;35317;51.978;6.296;2022-11-15T21:12:36;11.80;;;6.95;;
49440;SDS011;35317;51.978;6.296;2022-11-15T21:17:37;12.45;;;8.63;;
49440;SDS011;35317;51.978;6.296;2022-11-15T21:22:37;14.52;;;8.73;;
49440;SDS011;35317;51.978;6.296;2022-11-15T21:27:39;12.02;;;8.80;;
49440;SDS011;35317;51.978;6.296;2022-11-15T21:32:42;12.20;;;9.05;;
49440;SDS011;35317;51.978;6.296;2022-11-15T21:37:44;12.45;;;8.57;;
49440;SDS011;35317;51.978;6.296;2022-11-15T21:42:44;16.02;;;9.88;;
49440;SDS011;35317;51.978;6.296;2022-11-15T21:47:45;13.75;;;9.15;;
49440;SDS011;35317;51.978;6.296;2022-11-15T21:52:46;17.08;;;10.15;;
49440;SDS011;35317;51.978;6.296;2022-11-15T21:57:47;15.07;;;9.73;;
49440;SDS011;35317;51.978;6.296;2022-11-15T22:02:47;12.98;;;10.30;;
49440;SDS011;35317;51.978;6.296;2022-11-15T22:07:48;14.80;;;10.68;;
49440;SDS011;35317;51.978;6.296;2022-11-15T22:12:49;14.77;;;9.80;;
49440;SDS011;35317;51.978;6.296;2022-11-15T22:17:50;16.33;;;11.07;;
49440;SDS011;35317;51.978;6.296;2022-11-15T22:22:59;15.82;;;10.98;;
49440;SDS011;35317;51.978;6.296;2022-11-15T22:28:01;17.40;;;11.00;;
49440;SDS011;35317;51.978;6.296;2022-11-15T22:33:01;14.07;;;10.35;;
49440;SDS011;35317;51.978;6.296;2022-11-15T22:38:02;14.95;;;10.82;;
49440;SDS011;35317;51.978;6.296;2022-11-15T22:43:03;16.63;;;11.23;;
49440;SDS011;35317;51.978;6.296;2022-11-15T22:48:05;13.73;;;10.38;;
49440;SDS011;35317;51.978;6.296;2022-11-15T22:53:06;17.33;;;12.02;;
49440;SDS011;35317;51.978;6.296;2022-11-15T22:58:06;18.42;;;12.23;;
49440;SDS011;35317;51.978;6.296;2022-11-15T23:03:10;15.30;;;11.73;;
49440;SDS011;35317;51.978;6.296;2022-11-15T23:08:11;21.13;;;12.68;;
49440;SDS011;35317;51.978;6.296;2022-11-15T23:13:12;21.88;;;13.48;;
49440;SDS011;35317;51.978;6.296;2022-11-15T23:18:17;17.45;;;12.32;;
49440;SDS011;35317;51.978;6.296;2022-11-15T23:23:18;22.75;;;13.23;;
49440;SDS011;35317;51.978;6.296;2022-11-15T23:28:19;22.17;;;13.88;;
49440;SDS011;35317;51.978;6.296;2022-11-15T23:33:20;25.17;;;14.10;;
49440;SDS011;35317;51.978;6.296;2022-11-15T23:38:39;23.38;;;15.32;;
49440;SDS011;35317;51.978;6.296;2022-11-15T23:43:40;27.80;;;16.00;;
49440;SDS011;35317;51.978;6.296;2022-11-15T23:48:41;27.15;;;16.13;;
49440;SDS011;35317;51.978;6.296;2022-11-15T23:53:43;28.75;;;17.25;;
49440;SDS011;35317;51.978;6.296;2022-11-15T23:58:44;31.23;;;17.90;;
